Time;durP1;ratioP1;P1;durP2;ratioP2;P2;SDS_P1;SDS_P2;PMS_P1;PMS_P2;Temp;Humidity;BMP_temperature;BMP_pressure;BME280_temperature;BME280_humidity;BME280_pressure;Samples;Min_cycle;Max_cycle;Signal;HPM_P1;HPM_P2
2022/03/17 00:01:25;;;;;;;33.10;17.25;;;;;;;6.17;100.00;97121.63;4994466;28;20034;-67
2022/03/17 00:03:51;;;;;;;31.33;17.20;;;;;;;6.26;100.00;97128.59;5009249;28;20039;-66
2022/03/17 00:06:17;;;;;;;32.28;17.45;;;;;;;6.19;100.00;97124.81;4994098;28;20030;-66
2022/03/17 00:08:43;;;;;;;33.55;18.30;;;;;;;6.17;100.00;97127.84;4993861;28;20502;-66
2022/03/17 00:11:08;;;;;;;32.38;17.80;;;;;;;6.13;100.00;97126.91;4994020;28;20038;-68
2022/03/17 00:13:34;;;;;;;32.33;17.48;;;;;;;5.98;100.00;97127.44;4993830;28;20034;-67
2022/03/17 00:15:59;;;;;;;32.30;16.30;;;;;;;5.88;100.00;97121.22;4994046;28;20378;-67
2022/03/17 00:18:25;;;;;;;34.08;18.63;;;;;;;5.87;100.00;97116.09;4994956;28;20478;-67
2022/03/17 00:20:50;;;;;;;38.63;20.10;;;;;;;5.83;100.00;97120.59;4993742;28;20049;-67
2022/03/17 00:23:16;;;;;;;39.08;19.42;;;;;;;5.80;100.00;97122.06;4993967;28;20113;-67
2022/03/17 00:25:41;;;;;;;33.20;17.95;;;;;;;5.86;100.00;97112.59;4993393;28;20030;-66
2022/03/17 00:28:07;;;;;;;31.40;17.08;;;;;;;5.96;100.00;97118.81;4993165;28;20414;-66
2022/03/17 00:30:32;;;;;;;32.33;18.60;;;;;;;5.98;100.00;97120.09;5008566;28;20038;-66
2022/03/17 00:32:57;;;;;;;34.83;18.27;;;;;;;6.05;100.00;97112.25;4993507;28;20436;-66
2022/03/17 00:35:35;;;;;;;34.35;17.75;;;;;;;5.97;100.00;97113.06;4993526;28;20058;-68
2022/03/17 00:38:02;;;;;;;35.17;18.58;;;;;;;5.88;100.00;97109.56;4993666;28;20053;-68
2022/03/17 00:40:28;;;;;;;41.20;17.98;;;;;;;5.71;100.00;97110.41;4993419;28;20038;-67
2022/03/17 00:42:55;;;;;;;40.13;19.98;;;;;;;5.43;100.00;97107.28;4988078;28;20048;-67
2022/03/17 00:45:23;;;;;;;41.38;19.77;;;;;;;5.22;100.00;97113.41;4988932;28;20042;-68
2022/03/17 00:47:48;;;;;;;36.75;19.05;;;;;;;5.20;100.00;97114.81;4974163;28;20034;-67
2022/03/17 00:50:14;;;;;;;33.45;17.38;;;;;;;5.13;100.00;97113.41;4974569;28;20041;-68
2022/03/17 00:52:39;;;;;;;36.92;18.35;;;;;;;5.00;100.00;97119.00;4974321;28;20031;-68
2022/03/17 00:55:07;;;;;;;41.72;19.38;;;;;;;4.93;100.00;97109.44;4974005;28;20031;-67
2022/03/17 00:57:36;;;;;;;44.45;21.63;;;;;;;4.93;100.00;97114.84;4973635;28;20032;-65
2022/03/17 01:00:05;;;;;;;34.50;18.15;;;;;;;4.94;100.00;97113.72;4989032;28;20039;-68
2022/03/17 01:02:31;;;;;;;40.38;19.40;;;;;;;5.02;100.00;97103.19;4989272;28;20147;-68
2022/03/17 01:04:56;;;;;;;39.22;19.15;;;;;;;5.15;100.00;97113.88;4974897;28;20117;-68
2022/03/17 01:07:21;;;;;;;38.90;19.83;;;;;;;5.19;100.00;97105.88;4974110;28;20369;-67
2022/03/17 01:09:47;;;;;;;44.00;20.80;;;;;;;5.14;100.00;97111.47;4974970;28;20109;-66
2022/03/17 01:12:13;;;;;;;39.75;19.17;;;;;;;5.13;100.00;97109.88;4974796;28;20102;-66
2022/03/17 01:14:38;;;;;;;38.03;18.38;;;;;;;5.20;100.00;97112.91;4974306;28;20070;-66
2022/03/17 01:17:04;;;;;;;35.03;18.35;;;;;;;5.35;100.00;97119.78;4973514;28;20031;-67
2022/03/17 01:19:29;;;;;;;37.88;18.92;;;;;;;5.34;100.00;97120.88;4974242;28;20038;-66
2022/03/17 01:21:55;;;;;;;39.38;19.15;;;;;;;5.22;100.00;97120.72;4973838;28;20035;-67
2022/03/17 01:24:21;;;;;;;43.05;19.23;;;;;;;5.16;100.00;97123.59;4974110;28;20047;-67
2022/03/17 01:26:46;;;;;;;64.15;29.77;;;;;;;5.11;100.00;97114.84;4973462;28;20035;-68
2022/03/17 01:29:13;;;;;;;46.55;21.45;;;;;;;5.05;100.00;97121.56;4992676;28;20128;-68
2022/03/17 01:31:38;;;;;;;46.50;22.20;;;;;;;4.97;100.00;97115.81;4995909;28;20053;-67
2022/03/17 01:34:04;;;;;;;37.60;18.60;;;;;;;5.00;100.00;97117.06;5021740;28;20027;-67
2022/03/17 01:36:30;;;;;;;34.60;17.95;;;;;;;5.03;100.00;97107.50;4996815;28;20085;-66
2022/03/17 01:38:56;;;;;;;34.78;16.88;;;;;;;4.98;100.00;97113.88;4992832;28;20038;-67
2022/03/17 01:41:22;;;;;;;34.83;18.15;;;;;;;5.01;100.00;97107.03;4992838;28;20036;-67
2022/03/17 01:43:48;;;;;;;33.00;17.15;;;;;;;5.16;100.00;97117.38;4992883;28;20424;-67
2022/03/17 01:46:18;;;;;;;34.67;17.27;;;;;;;5.17;100.00;97114.34;4992325;28;20103;-67
2022/03/17 01:48:44;;;;;;;33.88;16.70;;;;;;;5.13;100.00;97118.84;4992523;28;20040;-67
2022/03/17 01:51:10;;;;;;;36.58;17.75;;;;;;;5.22;100.00;97115.31;4992706;28;20117;-67
2022/03/17 01:53:36;;;;;;;28.02;15.68;;;;;;;5.34;100.00;97108.09;4992227;28;20117;-67
2022/03/17 01:56:03;;;;;;;34.55;17.67;;;;;;;5.42;100.00;97109.22;4992248;28;20034;-67
2022/03/17 01:58:28;;;;;;;31.10;16.77;;;;;;;5.15;100.00;97099.53;4991597;28;20039;-67
2022/03/17 02:00:54;;;;;;;35.63;18.58;;;;;;;4.72;100.00;97106.53;4993252;28;20372;-67
2022/03/17 02:03:19;;;;;;;37.97;17.58;;;;;;;4.71;100.00;97104.94;4992219;28;20042;-67
2022/03/17 02:05:45;;;;;;;34.28;17.60;;;;;;;4.73;100.00;97105.41;4991107;28;20438;-67
2022/03/17 02:08:14;;;;;;;32.95;17.45;;;;;;;4.72;100.00;97109.25;4990413;28;20037;-67
2022/03/17 02:13:23;;;;;;;32.58;17.27;;;;;;;4.90;100.00;97115.50;4992246;28;20121;-67
2022/03/17 02:15:50;;;;;;;37.28;18.20;;;;;;;5.01;100.00;97115.19;4991756;28;20038;-67
2022/03/17 02:18:16;;;;;;;33.28;16.70;;;;;;;5.03;100.00;97111.00;4991982;28;20030;-67
2022/03/17 02:20:42;;;;;;;35.95;18.05;;;;;;;5.11;100.00;97118.38;4991421;28;20033;-68
2022/03/17 02:26:00;;;;;;;38.05;17.52;;;;;;;5.05;100.00;97126.97;4991666;28;20030;-66
2022/03/17 02:28:27;;;;;;;33.88;16.60;;;;;;;5.10;100.00;97124.13;4991039;28;20034;-67
2022/03/17 02:30:54;;;;;;;30.48;16.63;;;;;;;5.19;100.00;97130.34;4990654;28;20038;-66
2022/03/17 02:33:19;;;;;;;32.20;16.33;;;;;;;5.14;100.00;97136.72;4991692;28;20495;-66
2022/03/17 02:35:47;;;;;;;30.80;16.92;;;;;;;5.06;100.00;97140.25;4991517;28;20070;-66
2022/03/17 02:38:13;;;;;;;32.03;16.70;;;;;;;4.92;100.00;97137.69;4991364;28;20038;-66
2022/03/17 02:40:40;;;;;;;33.58;16.50;;;;;;;4.75;100.00;97143.91;4990853;28;20033;-67
2022/03/17 02:43:06;;;;;;;35.38;17.05;;;;;;;4.65;100.00;97149.63;4991650;28;20026;-67
2022/03/17 02:45:31;;;;;;;30.75;16.08;;;;;;;4.62;100.00;97150.25;4991378;28;20061;-68
2022/03/17 02:47:57;;;;;;;37.67;17.15;;;;;;;4.63;100.00;97153.75;4987331;28;20085;-68
2022/03/17 02:50:23;;;;;;;36.53;19.13;;;;;;;4.53;100.00;97150.22;4991581;28;20038;-67
2022/03/17 02:52:48;;;;;;;38.70;18.33;;;;;;;4.55;100.00;97163.47;4991824;28;20030;-67
2022/03/17 02:55:15;;;;;;;34.42;17.77;;;;;;;4.54;100.00;97157.25;4989682;28;20053;-67
2022/03/17 02:57:41;;;;;;;35.40;18.58;;;;;;;4.51;100.00;97157.88;4991568;28;20080;-67
2022/03/17 03:00:09;;;;;;;32.08;16.25;;;;;;;4.50;100.00;97158.19;4991508;28;20044;-67
2022/03/17 03:02:35;;;;;;;35.17;18.48;;;;;;;4.57;100.00;97166.69;4991430;28;20126;-68
2022/03/17 03:05:02;;;;;;;33.50;17.48;;;;;;;4.57;100.00;97161.25;4991585;28;20070;-67
2022/03/17 03:07:27;;;;;;;36.95;18.48;;;;;;;4.66;100.00;97163.97;4990972;28;20030;-67
2022/03/17 03:09:55;;;;;;;32.53;18.55;;;;;;;4.72;100.00;97166.25;4995317;28;20049;-66
2022/03/17 03:12:20;;;;;;;34.03;17.88;;;;;;;4.76;100.00;97163.69;5023403;28;20058;-65
2022/03/17 03:14:46;;;;;;;33.30;18.45;;;;;;;4.67;100.00;97171.03;4998715;28;20061;-66
2022/03/17 03:17:12;;;;;;;37.33;18.38;;;;;;;4.50;100.00;97172.59;4992514;28;20064;-66
2022/03/17 03:19:37;;;;;;;37.65;19.20;;;;;;;4.32;100.00;97174.44;4994616;28;20070;-66
2022/03/17 03:22:03;;;;;;;40.38;19.45;;;;;;;4.15;100.00;97177.88;4995269;28;20031;-66
2022/03/17 03:24:28;;;;;;;39.83;21.05;;;;;;;4.16;100.00;97184.09;4994724;28;20034;-66
2022/03/17 03:26:54;;;;;;;40.05;20.20;;;;;;;4.04;100.00;97186.63;4994289;28;20030;-66
2022/03/17 03:29:22;;;;;;;40.08;20.58;;;;;;;4.02;100.00;97184.22;4994950;28;20045;-65
2022/03/17 03:31:50;;;;;;;36.80;19.45;;;;;;;3.87;100.00;97185.41;4995392;28;20041;-66
2022/03/17 03:34:15;;;;;;;45.50;22.65;;;;;;;3.74;100.00;97194.41;4988327;28;20427;-65
2022/03/17 03:39:25;;;;;;;52.60;25.65;;;;;;;3.68;100.00;97191.03;4995200;28;20462;-66
2022/03/17 03:41:50;;;;;;;51.58;24.17;;;;;;;3.71;100.00;97198.56;4994146;28;20078;-65
2022/03/17 03:44:17;;;;;;;56.20;26.08;;;;;;;3.72;100.00;97207.47;4995947;28;20038;-65
2022/03/17 03:46:43;;;;;;;56.67;24.42;;;;;;;3.76;100.00;97203.03;4993847;28;20038;-65
2022/03/17 03:49:09;;;;;;;49.60;23.83;;;;;;;3.81;100.00;97206.41;4993603;28;20030;-65
2022/03/17 03:51:34;;;;;;;57.10;26.52;;;;;;;3.88;100.00;97210.59;4994977;28;20022;-65
2022/03/17 03:54:18;;;;;;;58.47;26.90;;;;;;;3.91;100.00;97207.28;4993452;28;20237;-65
2022/03/17 03:56:44;;;;;;;55.55;27.38;;;;;;;4.02;100.00;97212.09;4989045;28;20529;-66
2022/03/17 03:59:16;;;;;;;51.75;23.83;;;;;;;4.05;100.00;97215.31;4994514;28;20064;-65
2022/03/17 04:01:42;;;;;;;53.28;23.90;;;;;;;4.02;100.00;97219.44;5003510;28;20045;-65
2022/03/17 04:04:17;;;;;;;55.20;26.77;;;;;;;3.98;100.00;97221.97;5004634;28;20034;-65
2022/03/17 04:06:45;;;;;;;54.30;26.20;;;;;;;4.00;100.00;97227.09;5001893;28;20034;-65
2022/03/17 04:09:12;;;;;;;51.47;24.30;;;;;;;4.07;100.00;97230.16;5021894;23;20045;-67
2022/03/17 04:11:38;;;;;;;50.15;24.83;;;;;;;4.26;100.00;97229.13;5014651;28;20084;-69
2022/03/17 04:14:04;;;;;;;42.83;22.30;;;;;;;4.33;100.00;97226.75;5014769;28;20041;-68
2022/03/17 04:16:29;;;;;;;42.78;22.40;;;;;;;4.39;100.00;97231.75;5013967;28;20034;-66
2022/03/17 04:18:55;;;;;;;41.92;22.00;;;;;;;4.37;100.00;97239.38;5014551;28;20108;-67
2022/03/17 04:21:20;;;;;;;47.03;23.85;;;;;;;4.36;100.00;97243.22;5013352;28;20470;-67
2022/03/17 04:23:45;;;;;;;39.03;21.75;;;;;;;4.25;100.00;97247.31;5016284;28;20065;-67
2022/03/17 04:26:11;;;;;;;45.33;22.65;;;;;;;4.18;100.00;97244.25;5026574;28;20036;-69
2022/03/17 04:28:36;;;;;;;38.67;20.60;;;;;;;4.16;100.00;97254.56;5024685;28;20030;-69
2022/03/17 04:31:03;;;;;;;42.22;21.17;;;;;;;4.08;100.00;97255.34;5021351;28;20157;-67
2022/03/17 04:33:29;;;;;;;41.45;20.40;;;;;;;4.03;100.00;97267.09;5012139;28;20030;-66
2022/03/17 04:35:55;;;;;;;35.17;19.02;;;;;;;4.03;100.00;97269.81;5014479;28;20037;-70
2022/03/17 04:38:22;;;;;;;39.70;19.92;;;;;;;4.05;100.00;97273.00;5010544;28;20095;-66
2022/03/17 04:40:49;;;;;;;37.78;20.05;;;;;;;4.08;100.00;97269.69;5014138;28;20517;-68
2022/03/17 04:43:20;;;;;;;66.22;31.42;;;;;;;4.01;100.00;97275.53;5015962;28;20041;-69
2022/03/17 04:45:46;;;;;;;41.15;20.80;;;;;;;3.92;100.00;97276.63;5035444;28;20029;-71
2022/03/17 04:48:13;;;;;;;39.33;20.38;;;;;;;3.92;100.00;97276.63;5035000;28;20030;-68
2022/03/17 04:50:39;;;;;;;37.60;20.13;;;;;;;3.99;100.00;97285.91;5028071;28;20036;-69
2022/03/17 04:55:49;;;;;;;41.10;21.30;;;;;;;3.90;100.00;97286.97;5012917;28;20045;-70
2022/03/17 04:58:14;;;;;;;36.42;20.20;;;;;;;3.79;100.00;97289.91;5032277;28;20034;-69
2022/03/17 05:00:41;;;;;;;36.22;19.83;;;;;;;3.74;100.00;97284.63;5031002;28;20041;-68
2022/03/17 05:03:11;;;;;;;43.22;20.20;;;;;;;3.71;100.00;97285.25;5029388;28;20445;-69
2022/03/17 05:05:36;;;;;;;45.53;21.58;;;;;;;3.68;100.00;97282.34;5019989;28;20086;-68
2022/03/17 05:08:03;;;;;;;44.15;22.65;;;;;;;3.52;100.00;97284.63;5014723;28;20034;-68
2022/03/17 05:10:29;;;;;;;42.20;21.05;;;;;;;3.38;100.00;97290.06;5014336;28;20053;-69
2022/03/17 05:12:55;;;;;;;51.33;24.52;;;;;;;3.23;100.00;97288.50;5021404;28;20033;-68
2022/03/17 05:15:21;;;;;;;54.08;25.27;;;;;;;3.03;100.00;97289.75;5031311;28;20029;-69
2022/03/17 05:17:47;;;;;;;66.22;28.17;;;;;;;2.99;100.00;97286.84;5018444;28;20402;-70
2022/03/17 05:20:13;;;;;;;66.07;28.50;;;;;;;3.04;100.00;97288.63;5013204;28;20053;-69
2022/03/17 05:22:42;;;;;;;73.70;32.80;;;;;;;3.09;100.00;97295.84;5014511;28;20041;-69
2022/03/17 05:25:11;;;;;;;70.40;32.88;;;;;;;3.14;100.00;97301.94;5012876;28;20562;-69
2022/03/17 05:27:39;;;;;;;82.70;36.55;;;;;;;3.18;100.00;97299.44;5013325;28;20092;-69
2022/03/17 05:30:05;;;;;;;69.85;30.90;;;;;;;3.23;100.00;97310.16;5014320;28;20489;-69
2022/03/17 05:32:31;;;;;;;71.50;31.83;;;;;;;3.23;100.00;97299.31;5013486;28;20040;-69
2022/03/17 05:34:56;;;;;;;68.57;29.17;;;;;;;3.19;100.00;97303.75;5011800;28;20037;-68
2022/03/17 05:37:22;;;;;;;71.18;31.15;;;;;;;3.24;100.00;97309.84;5012487;28;20815;-69
2022/03/17 05:39:47;;;;;;;68.30;31.98;;;;;;;3.32;100.00;97313.75;5010620;28;20030;-68
2022/03/17 05:42:13;;;;;;;72.97;31.25;;;;;;;3.38;100.00;97315.22;5011089;28;20540;-68
2022/03/17 05:44:38;;;;;;;66.13;28.77;;;;;;;3.41;100.00;97313.84;5011133;28;20037;-67
2022/03/17 05:47:04;;;;;;;68.65;30.20;;;;;;;3.38;100.00;97319.84;5010998;28;20544;-68
2022/03/17 05:49:30;;;;;;;69.75;32.65;;;;;;;3.37;100.00;97310.94;5013226;28;20105;-67
2022/03/17 05:51:56;;;;;;;62.97;27.35;;;;;;;3.25;100.00;97310.66;5012767;28;20395;-68
2022/03/17 05:54:21;;;;;;;68.50;31.80;;;;;;;3.25;100.00;97319.56;5013325;28;20033;-67
2022/03/17 05:56:47;;;;;;;72.45;32.33;;;;;;;3.39;100.00;97324.97;5012749;28;20402;-67
2022/03/17 05:59:12;;;;;;;71.50;33.22;;;;;;;3.46;100.00;97321.84;5011208;28;20056;-69
2022/03/17 06:01:38;;;;;;;72.88;33.38;;;;;;;3.51;100.00;97324.44;5010885;28;20060;-68
2022/03/17 06:04:03;;;;;;;59.47;28.40;;;;;;;3.45;100.00;97323.72;5014114;28;20040;-68
2022/03/17 06:06:29;;;;;;;66.95;31.55;;;;;;;3.45;100.00;97326.44;5013279;28;20025;-67
2022/03/17 06:08:54;;;;;;;64.00;29.63;;;;;;;3.54;100.00;97336.56;5012970;28;20042;-67
2022/03/17 06:11:19;;;;;;;54.20;26.73;;;;;;;3.68;100.00;97341.94;5012189;28;20105;-67
2022/03/17 06:13:45;;;;;;;56.78;27.92;;;;;;;3.79;100.00;97338.69;5013248;28;20030;-67
2022/03/17 06:16:10;;;;;;;50.97;25.75;;;;;;;3.92;100.00;97342.44;5016873;28;20375;-67
2022/03/17 06:18:35;;;;;;;51.78;24.27;;;;;;;3.96;100.00;97353.47;5015091;28;20077;-68
2022/03/17 06:21:01;;;;;;;56.50;28.20;;;;;;;3.95;100.00;97344.56;5013629;28;20033;-68
2022/03/17 06:23:26;;;;;;;48.85;24.58;;;;;;;4.00;100.00;97360.69;5013191;28;20065;-68
2022/03/17 06:25:52;;;;;;;55.30;26.15;;;;;;;4.06;100.00;97363.28;5012728;28;20061;-67
2022/03/17 06:28:18;;;;;;;56.97;28.05;;;;;;;4.12;100.00;97362.84;5012563;28;20033;-69
2022/03/17 06:30:44;;;;;;;46.97;23.73;;;;;;;4.25;100.00;97363.91;5008276;28;20029;-68
2022/03/17 06:33:10;;;;;;;50.53;24.80;;;;;;;4.32;100.00;97366.16;5012772;28;20037;-67
2022/03/17 06:35:36;;;;;;;47.00;24.00;;;;;;;4.36;100.00;97369.88;5011100;28;20061;-69
2022/03/17 06:38:04;;;;;;;54.08;23.63;;;;;;;4.34;100.00;97380.22;5010931;28;20448;-68
2022/03/17 06:40:30;;;;;;;54.15;25.33;;;;;;;4.34;100.00;97380.22;5010166;28;20067;-67
2022/03/17 06:42:55;;;;;;;50.92;25.23;;;;;;;4.30;100.00;97381.94;5010581;28;20132;-67
2022/03/17 06:45:23;;;;;;;53.95;27.45;;;;;;;4.24;100.00;97377.78;5011944;28;20034;-69
2022/03/17 06:47:48;;;;;;;51.72;25.35;;;;;;;4.25;100.00;97382.06;5011902;28;20076;-69
2022/03/17 06:50:15;;;;;;;47.03;24.92;;;;;;;4.36;100.00;97378.03;5008895;28;20394;-69
2022/03/17 06:52:41;;;;;;;51.22;24.92;;;;;;;4.51;100.00;97382.25;5011975;28;20418;-68
2022/03/17 06:55:07;;;;;;;48.75;24.75;;;;;;;4.72;100.00;97394.19;5010911;28;20037;-69
2022/03/17 06:57:33;;;;;;;48.90;25.65;;;;;;;4.87;100.00;97394.91;5011792;28;20095;-68
2022/03/17 06:59:58;;;;;;;50.40;26.65;;;;;;;5.07;100.00;97386.19;5010796;28;20080;-67
2022/03/17 07:02:24;;;;;;;48.00;25.92;;;;;;;5.20;100.00;97395.34;5012223;28;20037;-69
2022/03/17 07:04:49;;;;;;;48.10;25.65;;;;;;;5.38;100.00;97389.97;5010334;28;20034;-68
2022/03/17 07:07:15;;;;;;;51.80;26.65;;;;;;;5.33;100.00;97399.88;5010592;28;20105;-68
2022/03/17 07:09:44;;;;;;;48.28;24.63;;;;;;;5.29;100.00;97403.50;5007650;28;20029;-68
2022/03/17 07:12:12;;;;;;;52.22;26.58;;;;;;;5.48;100.00;97408.69;5012111;28;20026;-67
2022/03/17 07:14:38;;;;;;;47.03;24.53;;;;;;;5.65;100.00;97408.72;5013380;28;20037;-67
2022/03/17 07:17:05;;;;;;;50.10;27.10;;;;;;;5.82;100.00;97413.41;5020949;28;20403;-68
2022/03/17 07:19:30;;;;;;;49.05;26.73;;;;;;;6.07;100.00;97411.84;5029097;28;20030;-68
2022/03/17 07:21:56;;;;;;;42.72;23.80;;;;;;;6.21;100.00;97419.84;5027655;28;20082;-67
2022/03/17 07:24:21;;;;;;;46.75;25.60;;;;;;;6.31;100.00;97419.50;5011562;28;20393;-67
2022/03/17 07:26:47;;;;;;;47.15;25.35;;;;;;;6.37;100.00;97417.44;5011654;28;20458;-67
2022/03/17 07:29:12;;;;;;;60.33;30.50;;;;;;;5.69;100.00;97414.31;5012839;28;20045;-68
2022/03/17 07:31:37;;;;;;;57.85;30.83;;;;;;;5.93;100.00;97424.75;5013933;28;20026;-68
2022/03/17 07:34:04;;;;;;;56.38;28.40;;;;;;;6.05;100.00;97430.41;5017662;28;20063;-67
2022/03/17 07:36:29;;;;;;;46.33;26.77;;;;;;;6.28;100.00;97431.06;5029836;28;20045;-68
2022/03/17 07:38:56;;;;;;;49.53;26.50;;;;;;;6.49;100.00;97435.84;5029171;28;20116;-68
2022/03/17 07:41:22;;;;;;;49.50;26.55;;;;;;;6.88;100.00;97432.09;5026363;28;20037;-67
2022/03/17 07:43:48;;;;;;;43.67;24.83;;;;;;;7.22;100.00;97430.38;5019745;28;20030;-67
2022/03/17 07:46:14;;;;;;;45.55;27.08;;;;;;;7.43;100.00;97435.09;5008843;28;20036;-67
2022/03/17 07:48:41;;;;;;;43.47;24.70;;;;;;;7.72;100.00;97438.94;5011570;28;20038;-67
2022/03/17 07:51:07;;;;;;;46.42;25.95;;;;;;;8.07;100.00;97436.81;5009922;28;20030;-67
2022/03/17 07:53:33;;;;;;;44.85;24.90;;;;;;;8.29;100.00;97438.41;5008942;28;20045;-68
2022/03/17 07:55:58;;;;;;;44.20;25.05;;;;;;;8.53;99.39;97445.94;5005491;28;20041;-70
2022/03/17 07:58:24;;;;;;;43.15;24.05;;;;;;;8.56;97.07;97449.94;5005835;28;20635;-71
2022/03/17 08:00:52;;;;;;;41.88;25.10;;;;;;;8.77;96.33;97458.91;5003865;28;20053;-67
2022/03/17 08:03:19;;;;;;;41.80;23.67;;;;;;;8.88;95.99;97459.28;4992181;28;20061;-69
2022/03/17 08:05:48;;;;;;;46.10;24.35;;;;;;;9.09;94.65;97461.97;5004566;28;20061;-69
2022/03/17 08:08:17;;;;;;;40.63;23.40;;;;;;;8.80;96.26;97468.34;4998763;28;20125;-68
2022/03/17 08:10:43;;;;;;;42.27;24.27;;;;;;;8.73;97.08;97465.34;5004977;28;20034;-69
2022/03/17 08:13:09;;;;;;;47.40;24.55;;;;;;;8.85;96.70;97461.88;4998388;28;20157;-69
2022/03/17 08:15:39;;;;;;;42.53;24.13;;;;;;;9.14;95.97;97464.44;5003427;28;20131;-68
2022/03/17 08:18:06;;;;;;;45.47;25.05;;;;;;;8.90;94.94;97464.41;4994777;28;20052;-70
2022/03/17 08:20:32;;;;;;;48.97;28.23;;;;;;;8.21;100.00;97466.53;5002783;28;20046;-69
2022/03/17 08:22:58;;;;;;;43.78;24.83;;;;;;;8.32;100.00;97456.84;5004203;28;20052;-68
2022/03/17 08:25:23;;;;;;;43.05;25.88;;;;;;;8.92;96.06;97460.19;4999030;28;20049;-69
2022/03/17 08:27:52;;;;;;;47.00;27.40;;;;;;;9.09;95.37;97461.13;5001914;28;20049;-69
2022/03/17 08:30:17;;;;;;;46.55;26.55;;;;;;;8.34;98.12;97454.59;4997212;28;20064;-69
2022/03/17 08:32:43;;;;;;;45.55;26.73;;;;;;;8.14;100.00;97466.28;5003928;28;20037;-69
2022/03/17 08:35:13;;;;;;;50.85;27.75;;;;;;;8.59;100.00;97461.00;5006700;28;20034;-70
2022/03/17 08:37:43;;;;;;;46.08;26.38;;;;;;;9.68;95.29;97466.22;5009286;28;20049;-69
2022/03/17 08:40:10;;;;;;;45.38;25.48;;;;;;;10.21;87.72;97473.69;4998783;28;20038;-69
2022/03/17 08:42:36;;;;;;;47.05;25.95;;;;;;;9.68;92.29;97473.63;5000977;28;20050;-68
2022/03/17 08:49:18;;;;;;;45.55;26.35;;;;;;;10.67;88.36;97477.03;5002980;28;20560;-71
2022/03/17 08:50:32;;;;;;;46.25;27.27;;;;;;;9.50;88.59;97479.31;5005072;28;20050;-70
2022/03/17 08:52:58;;;;;;;47.45;27.13;;;;;;;9.11;91.65;97472.53;5003441;28;20111;-68
2022/03/17 08:55:24;;;;;;;44.72;26.95;;;;;;;9.15;95.48;97468.78;4999541;28;20520;-70
2022/03/17 08:57:49;;;;;;;44.45;26.17;;;;;;;9.91;90.49;97474.78;5000225;28;20072;-69
2022/03/17 09:00:15;;;;;;;42.15;24.98;;;;;;;10.82;84.22;97472.75;5007114;28;20117;-70
2022/03/17 09:02:44;;;;;;;44.70;26.35;;;;;;;9.95;86.56;97477.63;5021192;28;20038;-71
2022/03/17 09:05:10;;;;;;;46.60;26.55;;;;;;;10.22;86.81;97470.63;5008141;28;20053;-70
2022/03/17 09:07:35;;;;;;;43.38;25.88;;;;;;;10.65;84.41;97474.63;5004256;28;20121;-69
2022/03/17 09:10:01;;;;;;;49.90;26.00;;;;;;;10.79;82.00;97477.00;5002891;28;20042;-69
2022/03/17 09:12:27;;;;;;;50.50;26.83;;;;;;;9.72;88.28;97471.81;4992999;28;20052;-68
2022/03/17 09:14:52;;;;;;;46.58;27.58;;;;;;;9.61;89.94;97476.16;5004235;28;20125;-69
2022/03/17 09:17:18;;;;;;;48.92;28.60;;;;;;;8.85;93.03;97475.53;4996018;28;20121;-70
2022/03/17 09:19:43;;;;;;;47.03;28.60;;;;;;;8.49;96.62;97471.53;5005466;28;20620;-70
2022/03/17 09:22:09;;;;;;;51.83;29.08;;;;;;;8.51;96.52;97471.97;5001330;28;20057;-70
2022/03/17 09:24:34;;;;;;;50.00;28.92;;;;;;;9.08;94.66;97475.97;5001806;28;20111;-69
2022/03/17 09:26:59;;;;;;;50.47;27.98;;;;;;;9.44;92.52;97479.91;5004575;28;20399;-71
2022/03/17 09:29:28;;;;;;;50.03;29.52;;;;;;;10.30;87.56;97477.91;4998792;28;20041;-70
2022/03/17 09:31:54;;;;;;;52.15;28.55;;;;;;;10.95;82.95;97478.97;5001388;28;20030;-69
2022/03/17 09:34:20;;;;;;;50.13;29.40;;;;;;;11.00;81.66;97474.06;4999645;28;20050;-69
2022/03/17 09:36:45;;;;;;;48.85;28.55;;;;;;;11.05;80.97;97479.25;5002287;28;20137;-70
2022/03/17 09:41:54;;;;;;;49.30;28.63;;;;;;;11.39;79.80;97471.53;5002389;28;20481;-71
2022/03/17 09:44:20;;;;;;;52.25;29.10;;;;;;;10.82;82.91;97478.22;5003531;28;20056;-70
2022/03/17 09:46:47;;;;;;;48.13;28.70;;;;;;;11.60;78.68;97479.50;5011145;28;20050;-70
2022/03/17 09:49:13;;;;;;;46.08;28.60;;;;;;;11.75;78.97;97477.91;5008429;28;20045;-69
2022/03/17 09:51:42;;;;;;;53.38;29.40;;;;;;;11.51;77.96;97478.88;5006961;28;20072;-68
2022/03/17 09:54:10;;;;;;;56.75;30.67;;;;;;;11.04;81.06;97480.41;5006112;28;20043;-70
2022/03/17 09:56:35;;;;;;;56.65;31.27;;;;;;;10.63;82.36;97489.84;5015522;28;20054;-70
2022/03/17 09:59:02;;;;;;;53.90;31.83;;;;;;;9.79;86.56;97487.66;5010879;28;20505;-69
2022/03/17 10:01:28;;;;;;;55.63;30.40;;;;;;;10.04;86.86;97493.91;4996459;28;20160;-69
2022/03/17 10:04:01;;;;;;;56.80;31.98;;;;;;;10.30;85.96;97485.34;4999939;28;20112;-68
2022/03/17 10:06:28;;;;;;;56.58;32.08;;;;;;;10.46;84.26;97496.38;4991294;28;20045;-69
2022/03/17 10:08:55;;;;;;;53.40;30.60;;;;;;;10.42;83.49;97488.06;5022560;23;20045;-65
2022/03/17 10:11:31;;;;;;;55.20;31.33;;;;;;;10.49;84.33;97484.75;4985103;28;20140;-67
2022/03/17 10:13:59;;;;;;;56.72;32.22;;;;;;;10.30;84.04;97491.59;4994010;28;20042;-67
2022/03/17 10:16:26;;;;;;;57.05;31.98;;;;;;;10.63;83.83;97487.91;4981067;28;20093;-66
2022/03/17 10:18:58;;;;;;;56.13;31.85;;;;;;;10.73;83.12;97486.59;4983193;28;20043;-66
2022/03/17 10:21:27;;;;;;;57.10;32.80;;;;;;;10.47;84.76;97492.50;4985137;28;20132;-64
2022/03/17 10:24:00;;;;;;;56.60;32.28;;;;;;;10.73;83.08;97483.84;4990905;28;20053;-66
2022/03/17 10:26:43;;;;;;;50.42;31.17;;;;;;;10.88;81.80;97477.63;4988661;28;20049;-66
2022/03/17 10:29:20;;;;;;;53.58;30.38;;;;;;;11.04;81.18;97480.41;4980028;28;20081;-66
2022/03/17 10:31:57;;;;;;;59.00;32.78;;;;;;;11.18;80.68;97480.00;4991431;28;20409;-66
2022/03/17 10:34:30;;;;;;;57.42;30.05;;;;;;;11.09;81.33;97485.66;4990468;28;20137;-65
2022/03/17 10:37:13;;;;;;;53.53;31.25;;;;;;;11.03;81.51;97489.78;4994615;28;20054;-64
2022/03/17 10:39:47;;;;;;;53.83;30.58;;;;;;;11.26;80.72;97489.22;4989948;28;20042;-64
2022/03/17 10:42:17;;;;;;;51.05;31.70;;;;;;;11.37;79.64;97501.25;4989311;28;20053;-64
2022/03/17 10:45:07;;;;;;;46.92;29.23;;;;;;;11.34;79.80;97490.97;4992053;28;20046;-67
2022/03/17 10:47:40;;;;;;;52.97;30.98;;;;;;;11.44;79.94;97493.22;4971511;28;20049;-65
2022/03/17 10:50:17;;;;;;;56.80;29.70;;;;;;;11.37;79.14;97492.25;4980966;28;20038;-66
2022/03/17 10:52:56;;;;;;;53.58;31.23;;;;;;;11.55;79.11;97488.00;5006752;28;20046;-65
2022/03/17 10:55:27;;;;;;;45.60;27.90;;;;;;;11.66;79.57;97485.53;4985057;28;20725;-67
2022/03/17 10:58:14;;;;;;;52.72;30.30;;;;;;;11.71;77.49;97489.97;4988519;28;20495;-66
2022/03/17 11:00:50;;;;;;;53.20;31.67;;;;;;;11.85;77.20;97491.09;4992858;28;20448;-66
2022/03/17 11:03:16;;;;;;;58.75;31.83;;;;;;;11.33;79.71;97492.16;4985404;28;20078;-66
2022/03/17 11:05:41;;;;;;;52.30;30.58;;;;;;;11.53;78.58;97487.56;4991789;28;20042;-67
2022/03/17 11:08:10;;;;;;;53.78;31.80;;;;;;;11.81;77.39;97489.41;4980199;28;20054;-69
2022/03/17 11:10:39;;;;;;;50.97;30.42;;;;;;;11.92;77.60;97486.94;4982581;28;20037;-66
2022/03/17 11:13:09;;;;;;;49.53;29.77;;;;;;;11.97;76.49;97489.41;4991127;28;20042;-68
2022/03/17 11:15:38;;;;;;;53.17;30.58;;;;;;;11.92;76.07;97485.00;4993152;28;20187;-66
2022/03/17 11:18:13;;;;;;;54.00;28.90;;;;;;;11.88;76.41;97489.56;4987406;28;20042;-68
2022/03/17 11:20:39;;;;;;;49.58;30.00;;;;;;;11.70;77.26;97491.88;4987437;28;20054;-66
2022/03/17 11:23:15;;;;;;;50.47;30.00;;;;;;;11.78;77.78;97488.16;4983253;28;20053;-66
2022/03/17 11:25:58;;;;;;;47.38;27.77;;;;;;;11.91;77.35;97494.38;4988099;28;20038;-66
2022/03/17 11:28:36;;;;;;;47.65;28.25;;;;;;;10.86;82.31;97496.38;4986778;28;20044;-65
2022/03/17 11:31:04;;;;;;;53.25;29.83;;;;;;;10.38;85.84;97484.44;4997031;28;20045;-65
2022/03/17 11:33:34;;;;;;;51.67;31.20;;;;;;;10.96;84.12;97489.59;4992417;28;20050;-66